sensor_id;sensor_type;location;lat;lon;timestamp;P1;durP1;ratioP1;P2;durP2;ratioP2
72209;SDS011;60113;48.762;12.302;2022-07-29T00:00:08;13.80;;;4.32;;
72209;SDS011;60113;48.762;12.302;2022-07-29T00:02:34;9.60;;;4.60;;
72209;SDS011;60113;48.762;12.302;2022-07-29T00:05:01;10.32;;;4.53;;
72209;SDS011;60113;48.762;12.302;2022-07-29T00:07:27;9.27;;;4.45;;
72209;SDS011;60113;48.762;12.302;2022-07-29T00:09:52;11.13;;;4.50;;
72209;SDS011;60113;48.762;12.302;2022-07-29T00:12:19;8.07;;;4.28;;
72209;SDS011;60113;48.762;12.302;2022-07-29T00:14:45;7.13;;;4.07;;
72209;SDS011;60113;48.762;12.302;2022-07-29T00:17:12;7.68;;;4.35;;
72209;SDS011;60113;48.762;12.302;2022-07-29T00:19:37;10.23;;;4.78;;
72209;SDS011;60113;48.762;12.302;2022-07-29T00:22:03;7.45;;;4.47;;
72209;SDS011;60113;48.762;12.302;2022-07-29T00:24:28;5.78;;;4.45;;
72209;SDS011;60113;48.762;12.302;2022-07-29T00:26:54;6.93;;;4.30;;
72209;SDS011;60113;48.762;12.302;2022-07-29T00:29:19;6.20;;;4.32;;
72209;SDS011;60113;48.762;12.302;2022-07-29T00:31:45;9.27;;;4.72;;
72209;SDS011;60113;48.762;12.302;2022-07-29T00:34:14;10.68;;;4.40;;
72209;SDS011;60113;48.762;12.302;2022-07-29T00:36:57;12.02;;;4.72;;
72209;SDS011;60113;48.762;12.302;2022-07-29T00:39:24;6.32;;;4.30;;
72209;SDS011;60113;48.762;12.302;2022-07-29T00:41:49;10.30;;;4.68;;
72209;SDS011;60113;48.762;12.302;2022-07-29T00:44:16;13.98;;;4.90;;
72209;SDS011;60113;48.762;12.302;2022-07-29T00:46:41;9.65;;;4.38;;
72209;SDS011;60113;48.762;12.302;2022-07-29T00:49:09;8.80;;;5.03;;
72209;SDS011;60113;48.762;12.302;2022-07-29T00:51:36;8.05;;;4.65;;
72209;SDS011;60113;48.762;12.302;2022-07-29T00:54:02;12.57;;;4.40;;
72209;SDS011;60113;48.762;12.302;2022-07-29T00:56:29;8.15;;;5.00;;
72209;SDS011;60113;48.762;12.302;2022-07-29T00:58:56;5.70;;;4.38;;
72209;SDS011;60113;48.762;12.302;2022-07-29T01:01:22;10.23;;;4.85;;
72209;SDS011;60113;48.762;12.302;2022-07-29T01:03:48;11.52;;;4.65;;
72209;SDS011;60113;48.762;12.302;2022-07-29T01:06:16;6.65;;;5.10;;
72209;SDS011;60113;48.762;12.302;2022-07-29T01:08:43;11.43;;;5.78;;
72209;SDS011;60113;48.762;12.302;2022-07-29T01:11:12;6.75;;;4.88;;
72209;SDS011;60113;48.762;12.302;2022-07-29T01:13:40;9.85;;;5.50;;
72209;SDS011;60113;48.762;12.302;2022-07-29T01:16:18;11.13;;;5.65;;
72209;SDS011;60113;48.762;12.302;2022-07-29T01:18:53;6.40;;;5.10;;
72209;SDS011;60113;48.762;12.302;2022-07-29T01:30:01;8.32;;;5.00;;
72209;SDS011;60113;48.762;12.302;2022-07-29T01:32:29;10.73;;;4.93;;
72209;SDS011;60113;48.762;12.302;2022-07-29T01:37:48;7.63;;;5.40;;
72209;SDS011;60113;48.762;12.302;2022-07-29T01:40:19;10.20;;;5.38;;
72209;SDS011;60113;48.762;12.302;2022-07-29T01:42:50;8.20;;;5.28;;
72209;SDS011;60113;48.762;12.302;2022-07-29T01:45:20;9.45;;;5.57;;
72209;SDS011;60113;48.762;12.302;2022-07-29T01:50:22;7.75;;;5.13;;
72209;SDS011;60113;48.762;12.302;2022-07-29T01:53:02;9.98;;;4.93;;
72209;SDS011;60113;48.762;12.302;2022-07-29T01:55:34;6.28;;;4.93;;
72209;SDS011;60113;48.762;12.302;2022-07-29T01:58:04;8.77;;;4.80;;
72209;SDS011;60113;48.762;12.302;2022-07-29T02:00:31;8.00;;;4.97;;
72209;SDS011;60113;48.762;12.302;2022-07-29T02:02:58;8.38;;;5.60;;
72209;SDS011;60113;48.762;12.302;2022-07-29T02:05:27;6.55;;;5.00;;
72209;SDS011;60113;48.762;12.302;2022-07-29T02:07:55;7.70;;;4.90;;
72209;SDS011;60113;48.762;12.302;2022-07-29T02:10:24;9.40;;;5.28;;
72209;SDS011;60113;48.762;12.302;2022-07-29T02:12:52;9.65;;;5.18;;
72209;SDS011;60113;48.762;12.302;2022-07-29T02:15:20;11.20;;;5.60;;
72209;SDS011;60113;48.762;12.302;2022-07-29T02:17:55;7.03;;;5.13;;
72209;SDS011;60113;48.762;12.302;2022-07-29T02:20:26;8.30;;;5.15;;
72209;SDS011;60113;48.762;12.302;2022-07-29T02:22:53;8.98;;;5.20;;
72209;SDS011;60113;48.762;12.302;2022-07-29T02:25:21;9.27;;;5.35;;
72209;SDS011;60113;48.762;12.302;2022-07-29T02:27:49;7.80;;;4.40;;
72209;SDS011;60113;48.762;12.302;2022-07-29T02:30:15;6.68;;;5.38;;
72209;SDS011;60113;48.762;12.302;2022-07-29T02:32:42;9.90;;;5.20;;
72209;SDS011;60113;48.762;12.302;2022-07-29T02:35:10;14.40;;;5.68;;
72209;SDS011;60113;48.762;12.302;2022-07-29T02:37:38;8.48;;;5.28;;
72209;SDS011;60113;48.762;12.302;2022-07-29T02:40:08;10.43;;;5.55;;
72209;SDS011;60113;48.762;12.302;2022-07-29T02:42:36;7.15;;;4.82;;
72209;SDS011;60113;48.762;12.302;2022-07-29T02:45:04;10.80;;;5.72;;
72209;SDS011;60113;48.762;12.302;2022-07-29T02:47:32;11.63;;;5.93;;
72209;SDS011;60113;48.762;12.302;2022-07-29T02:53:00;8.27;;;5.50;;
72209;SDS011;60113;48.762;12.302;2022-07-29T02:55:32;9.95;;;5.93;;
72209;SDS011;60113;48.762;12.302;2022-07-29T03:00:28;14.15;;;6.28;;
72209;SDS011;60113;48.762;12.302;2022-07-29T03:02:56;13.50;;;6.22;;
72209;SDS011;60113;48.762;12.302;2022-07-29T03:05:24;6.57;;;5.60;;
72209;SDS011;60113;48.762;12.302;2022-07-29T03:07:52;7.80;;;5.65;;
72209;SDS011;60113;48.762;12.302;2022-07-29T03:10:22;10.60;;;5.93;;
72209;SDS011;60113;48.762;12.302;2022-07-29T03:12:50;11.82;;;6.22;;
72209;SDS011;60113;48.762;12.302;2022-07-29T03:15:16;6.88;;;5.35;;
72209;SDS011;60113;48.762;12.302;2022-07-29T03:17:43;7.90;;;5.63;;
72209;SDS011;60113;48.762;12.302;2022-07-29T03:20:09;12.70;;;6.00;;
72209;SDS011;60113;48.762;12.302;2022-07-29T03:22:40;15.70;;;6.28;;
72209;SDS011;60113;48.762;12.302;2022-07-29T03:25:12;9.10;;;6.00;;
72209;SDS011;60113;48.762;12.302;2022-07-29T03:27:43;11.85;;;6.10;;
72209;SDS011;60113;48.762;12.302;2022-07-29T03:30:09;7.75;;;5.43;;
72209;SDS011;60113;48.762;12.302;2022-07-29T03:32:36;9.27;;;5.60;;
72209;SDS011;60113;48.762;12.302;2022-07-29T03:35:03;9.52;;;5.55;;
72209;SDS011;60113;48.762;12.302;2022-07-29T03:37:29;8.75;;;5.50;;
72209;SDS011;60113;48.762;12.302;2022-07-29T03:39:56;8.10;;;5.70;;
72209;SDS011;60113;48.762;12.302;2022-07-29T03:42:26;8.20;;;5.25;;
72209;SDS011;60113;48.762;12.302;2022-07-29T03:44:55;17.67;;;9.02;;
72209;SDS011;60113;48.762;12.302;2022-07-29T03:47:24;22.60;;;14.15;;
72209;SDS011;60113;48.762;12.302;2022-07-29T03:49:53;15.10;;;6.40;;
72209;SDS011;60113;48.762;12.302;2022-07-29T03:52:24;9.82;;;5.55;;
72209;SDS011;60113;48.762;12.302;2022-07-29T03:54:50;8.43;;;5.40;;
72209;SDS011;60113;48.762;12.302;2022-07-29T03:57:15;12.43;;;6.30;;
72209;SDS011;60113;48.762;12.302;2022-07-29T03:59:44;9.10;;;6.13;;
72209;SDS011;60113;48.762;12.302;2022-07-29T04:02:11;9.82;;;5.45;;
72209;SDS011;60113;48.762;12.302;2022-07-29T04:04:37;8.75;;;5.22;;
72209;SDS011;60113;48.762;12.302;2022-07-29T04:07:03;8.43;;;5.90;;
72209;SDS011;60113;48.762;12.302;2022-07-29T04:09:29;10.60;;;5.65;;
72209;SDS011;60113;48.762;12.302;2022-07-29T04:11:55;9.35;;;5.22;;
72209;SDS011;60113;48.762;12.302;2022-07-29T04:14:20;11.10;;;5.90;;
72209;SDS011;60113;48.762;12.302;2022-07-29T04:16:46;9.73;;;6.45;;
72209;SDS011;60113;48.762;12.302;2022-07-29T04:19:12;11.70;;;6.10;;
72209;SDS011;60113;48.762;12.302;2022-07-29T04:21:40;10.25;;;5.93;;
72209;SDS011;60113;48.762;12.302;2022-07-29T04:24:06;7.93;;;5.70;;
72209;SDS011;60113;48.762;12.302;2022-07-29T04:26:32;11.40;;;5.75;;
72209;SDS011;60113;48.762;12.302;2022-07-29T04:28:58;11.45;;;5.70;;
72209;SDS011;60113;48.762;12.302;2022-07-29T04:31:24;8.80;;;5.55;;
72209;SDS011;60113;48.762;12.302;2022-07-29T04:33:49;12.07;;;5.60;;
72209;SDS011;60113;48.762;12.302;2022-07-29T04:36:15;9.13;;;5.78;;
72209;SDS011;60113;48.762;12.302;2022-07-29T04:38:41;8.55;;;5.63;;
72209;SDS011;60113;48.762;12.302;2022-07-29T04:41:06;7.35;;;5.75;;
72209;SDS011;60113;48.762;12.302;2022-07-29T04:43:33;15.10;;;5.80;;
72209;SDS011;60113;48.762;12.302;2022-07-29T04:45:59;7.82;;;5.72;;
72209;SDS011;60113;48.762;12.302;2022-07-29T04:48:25;7.82;;;5.45;;
72209;SDS011;60113;48.762;12.302;2022-07-29T04:50:51;10.25;;;5.45;;
72209;SDS011;60113;48.762;12.302;2022-07-29T04:53:17;7.63;;;5.30;;
72209;SDS011;60113;48.762;12.302;2022-07-29T04:55:42;7.72;;;5.50;;
72209;SDS011;60113;48.762;12.302;2022-07-29T04:58:08;9.27;;;5.72;;
72209;SDS011;60113;48.762;12.302;2022-07-29T05:00:34;11.38;;;5.50;;
72209;SDS011;60113;48.762;12.302;2022-07-29T05:02:59;6.65;;;4.93;;
72209;SDS011;60113;48.762;12.302;2022-07-29T05:05:25;12.40;;;5.25;;
72209;SDS011;60113;48.762;12.302;2022-07-29T05:07:50;10.20;;;5.28;;
72209;SDS011;60113;48.762;12.302;2022-07-29T05:10:16;12.00;;;5.00;;
72209;SDS011;60113;48.762;12.302;2022-07-29T05:12:41;8.13;;;4.78;;
72209;SDS011;60113;48.762;12.302;2022-07-29T05:15:08;17.25;;;5.38;;
72209;SDS011;60113;48.762;12.302;2022-07-29T05:17:34;6.30;;;4.85;;
72209;SDS011;60113;48.762;12.302;2022-07-29T05:19:59;7.28;;;4.82;;
72209;SDS011;60113;48.762;12.302;2022-07-29T05:22:25;6.05;;;4.60;;
72209;SDS011;60113;48.762;12.302;2022-07-29T05:24:50;9.23;;;4.82;;
72209;SDS011;60113;48.762;12.302;2022-07-29T05:27:16;8.43;;;4.47;;
72209;SDS011;60113;48.762;12.302;2022-07-29T05:29:41;18.10;;;4.63;;
72209;SDS011;60113;48.762;12.302;2022-07-29T05:32:07;8.25;;;4.82;;
72209;SDS011;60113;48.762;12.302;2022-07-29T05:34:32;8.52;;;5.00;;
72209;SDS011;60113;48.762;12.302;2022-07-29T05:36:58;11.98;;;4.40;;
72209;SDS011;60113;48.762;12.302;2022-07-29T05:39:23;9.10;;;4.60;;
72209;SDS011;60113;48.762;12.302;2022-07-29T05:41:49;9.32;;;4.50;;
72209;SDS011;60113;48.762;12.302;2022-07-29T05:44:15;9.57;;;4.30;;
72209;SDS011;60113;48.762;12.302;2022-07-29T05:46:40;5.10;;;3.85;;
72209;SDS011;60113;48.762;12.302;2022-07-29T05:49:06;8.57;;;4.10;;
72209;SDS011;60113;48.762;12.302;2022-07-29T05:51:35;11.50;;;3.67;;
72209;SDS011;60113;48.762;12.302;2022-07-29T05:54:01;11.57;;;4.68;;
72209;SDS011;60113;48.762;12.302;2022-07-29T05:56:27;5.22;;;4.00;;
72209;SDS011;60113;48.762;12.302;2022-07-29T05:58:52;8.80;;;5.03;;
72209;SDS011;60113;48.762;12.302;2022-07-29T06:01:18;10.15;;;4.32;;
72209;SDS011;60113;48.762;12.302;2022-07-29T06:03:44;8.95;;;4.30;;
72209;SDS011;60113;48.762;12.302;2022-07-29T06:06:10;4.78;;;3.65;;
72209;SDS011;60113;48.762;12.302;2022-07-29T06:08:36;10.57;;;4.00;;
72209;SDS011;60113;48.762;12.302;2022-07-29T06:11:02;7.00;;;3.95;;
72209;SDS011;60113;48.762;12.302;2022-07-29T06:13:28;5.13;;;3.42;;
72209;SDS011;60113;48.762;12.302;2022-07-29T06:15:54;9.63;;;3.83;;
72209;SDS011;60113;48.762;12.302;2022-07-29T06:18:20;6.45;;;3.55;;
72209;SDS011;60113;48.762;12.302;2022-07-29T06:20:51;5.88;;;3.47;;
72209;SDS011;60113;48.762;12.302;2022-07-29T06:23:17;5.97;;;3.40;;
72209;SDS011;60113;48.762;12.302;2022-07-29T06:25:44;6.40;;;3.15;;
72209;SDS011;60113;48.762;12.302;2022-07-29T06:28:10;9.82;;;3.90;;
72209;SDS011;60113;48.762;12.302;2022-07-29T06:30:35;8.73;;;3.25;;
72209;SDS011;60113;48.762;12.302;2022-07-29T06:33:01;6.38;;;3.30;;
72209;SDS011;60113;48.762;12.302;2022-07-29T06:35:28;6.78;;;3.75;;
72209;SDS011;60113;48.762;12.302;2022-07-29T06:37:54;8.52;;;3.03;;
72209;SDS011;60113;48.762;12.302;2022-07-29T06:40:19;6.00;;;3.28;;
72209;SDS011;60113;48.762;12.302;2022-07-29T06:43:04;6.18;;;3.30;;
72209;SDS011;60113;48.762;12.302;2022-07-29T06:45:30;10.05;;;3.40;;
72209;SDS011;60113;48.762;12.302;2022-07-29T06:47:59;7.70;;;3.42;;
72209;SDS011;60113;48.762;12.302;2022-07-29T06:50:24;4.10;;;2.83;;
72209;SDS011;60113;48.762;12.302;2022-07-29T06:52:50;7.18;;;3.30;;
72209;SDS011;60113;48.762;12.302;2022-07-29T06:55:15;4.25;;;3.03;;
72209;SDS011;60113;48.762;12.302;2022-07-29T06:57:41;4.25;;;3.15;;
72209;SDS011;60113;48.762;12.302;2022-07-29T07:00:07;13.48;;;3.45;;
72209;SDS011;60113;48.762;12.302;2022-07-29T07:02:33;9.60;;;4.00;;
72209;SDS011;60113;48.762;12.302;2022-07-29T07:04:58;3.85;;;3.13;;
72209;SDS011;60113;48.762;12.302;2022-07-29T07:07:24;5.22;;;3.25;;
72209;SDS011;60113;48.762;12.302;2022-07-29T07:09:50;5.50;;;3.13;;
72209;SDS011;60113;48.762;12.302;2022-07-29T07:12:16;8.50;;;2.97;;
72209;SDS011;60113;48.762;12.302;2022-07-29T07:14:41;12.55;;;3.17;;
72209;SDS011;60113;48.762;12.302;2022-07-29T07:17:07;8.77;;;2.97;;
72209;SDS011;60113;48.762;12.302;2022-07-29T07:19:33;14.93;;;3.10;;
72209;SDS011;60113;48.762;12.302;2022-07-29T07:21:58;9.63;;;3.08;;
72209;SDS011;60113;48.762;12.302;2022-07-29T07:24:24;2.78;;;2.35;;
72209;SDS011;60113;48.762;12.302;2022-07-29T07:26:50;9.70;;;3.35;;
72209;SDS011;60113;48.762;12.302;2022-07-29T07:29:16;5.65;;;3.28;;
72209;SDS011;60113;48.762;12.302;2022-07-29T07:31:41;5.65;;;2.75;;
72209;SDS011;60113;48.762;12.302;2022-07-29T07:34:07;7.60;;;2.90;;
72209;SDS011;60113;48.762;12.302;2022-07-29T07:36:33;145.05;;;15.57;;
72209;SDS011;60113;48.762;12.302;2022-07-29T07:38:58;7.10;;;2.90;;
72209;SDS011;60113;48.762;12.302;2022-07-29T07:41:24;4.07;;;3.22;;
72209;SDS011;60113;48.762;12.302;2022-07-29T07:43:50;8.02;;;3.20;;
72209;SDS011;60113;48.762;12.302;2022-07-29T07:46:15;4.72;;;3.10;;
72209;SDS011;60113;48.762;12.302;2022-07-29T07:48:41;5.20;;;3.08;;
72209;SDS011;60113;48.762;12.302;2022-07-29T07:51:07;6.35;;;2.97;;
72209;SDS011;60113;48.762;12.302;2022-07-29T07:53:33;4.60;;;3.40;;
72209;SDS011;60113;48.762;12.302;2022-07-29T07:55:59;3.80;;;2.92;;
72209;SDS011;60113;48.762;12.302;2022-07-29T07:58:25;5.80;;;3.30;;
72209;SDS011;60113;48.762;12.302;2022-07-29T08:00:50;8.18;;;3.00;;
72209;SDS011;60113;48.762;12.302;2022-07-29T08:03:16;5.53;;;3.20;;
72209;SDS011;60113;48.762;12.302;2022-07-29T08:05:41;7.35;;;3.00;;
72209;SDS011;60113;48.762;12.302;2022-07-29T08:08:07;4.55;;;2.58;;
72209;SDS011;60113;48.762;12.302;2022-07-29T08:10:33;4.22;;;2.33;;
72209;SDS011;60113;48.762;12.302;2022-07-29T08:13:17;5.00;;;2.45;;
72209;SDS011;60113;48.762;12.302;2022-07-29T08:15:44;5.10;;;2.17;;
72209;SDS011;60113;48.762;12.302;2022-07-29T08:18:11;6.55;;;2.20;;
72209;SDS011;60113;48.762;12.302;2022-07-29T08:20:37;5.25;;;2.60;;
72209;SDS011;60113;48.762;12.302;2022-07-29T08:23:05;4.85;;;2.92;;
72209;SDS011;60113;48.762;12.302;2022-07-29T08:25:38;3.92;;;2.58;;
72209;SDS011;60113;48.762;12.302;2022-07-29T08:28:04;7.43;;;2.50;;
72209;SDS011;60113;48.762;12.302;2022-07-29T08:30:30;4.15;;;2.40;;
72209;SDS011;60113;48.762;12.302;2022-07-29T08:32:57;4.15;;;2.28;;
72209;SDS011;60113;48.762;12.302;2022-07-29T08:35:23;6.68;;;2.40;;
72209;SDS011;60113;48.762;12.302;2022-07-29T08:37:50;3.55;;;2.25;;
72209;SDS011;60113;48.762;12.302;2022-07-29T08:40:16;6.10;;;2.25;;
72209;SDS011;60113;48.762;12.302;2022-07-29T08:42:42;2.88;;;2.00;;
72209;SDS011;60113;48.762;12.302;2022-07-29T08:45:08;2.47;;;1.95;;
72209;SDS011;60113;48.762;12.302;2022-07-29T08:47:35;6.00;;;2.20;;
72209;SDS011;60113;48.762;12.302;2022-07-29T08:50:04;6.00;;;2.00;;
72209;SDS011;60113;48.762;12.302;2022-07-29T08:52:31;5.05;;;2.00;;
72209;SDS011;60113;48.762;12.302;2022-07-29T08:55:01;4.05;;;2.05;;
72209;SDS011;60113;48.762;12.302;2022-07-29T08:57:28;6.45;;;1.73;;
72209;SDS011;60113;48.762;12.302;2022-07-29T08:59:54;2.83;;;1.77;;
72209;SDS011;60113;48.762;12.302;2022-07-29T09:02:22;4.22;;;2.00;;
72209;SDS011;60113;48.762;12.302;2022-07-29T09:04:51;2.75;;;1.90;;
72209;SDS011;60113;48.762;12.302;2022-07-29T09:07:18;4.28;;;2.00;;
72209;SDS011;60113;48.762;12.302;2022-07-29T09:09:44;3.13;;;1.90;;
72209;SDS011;60113;48.762;12.302;2022-07-29T09:12:12;2.97;;;1.80;;
72209;SDS011;60113;48.762;12.302;2022-07-29T09:14:39;4.50;;;1.83;;
72209;SDS011;60113;48.762;12.302;2022-07-29T09:17:05;2.30;;;1.70;;
72209;SDS011;60113;48.762;12.302;2022-07-29T09:19:36;2.28;;;1.60;;
72209;SDS011;60113;48.762;12.302;2022-07-29T09:22:03;6.05;;;1.77;;
72209;SDS011;60113;48.762;12.302;2022-07-29T09:27:10;2.97;;;1.80;;
72209;SDS011;60113;48.762;12.302;2022-07-29T09:29:43;3.38;;;1.60;;
72209;SDS011;60113;48.762;12.302;2022-07-29T09:32:09;5.70;;;1.80;;
72209;SDS011;60113;48.762;12.302;2022-07-29T09:34:36;7.07;;;1.63;;
72209;SDS011;60113;48.762;12.302;2022-07-29T09:37:02;4.43;;;1.70;;
72209;SDS011;60113;48.762;12.302;2022-07-29T09:41:56;4.78;;;1.70;;
72209;SDS011;60113;48.762;12.302;2022-07-29T09:44:24;3.50;;;1.50;;
72209;SDS011;60113;48.762;12.302;2022-07-29T09:49:22;3.95;;;1.80;;
72209;SDS011;60113;48.762;12.302;2022-07-29T09:51:58;1.65;;;1.20;;
72209;SDS011;60113;48.762;12.302;2022-07-29T09:54:34;2.30;;;1.40;;
72209;SDS011;60113;48.762;12.302;2022-07-29T09:57:04;1.98;;;1.40;;
72209;SDS011;60113;48.762;12.302;2022-07-29T09:59:31;2.85;;;1.17;;
72209;SDS011;60113;48.762;12.302;2022-07-29T10:01:58;10.98;;;7.82;;
72209;SDS011;60113;48.762;12.302;2022-07-29T10:04:35;7.13;;;1.92;;
72209;SDS011;60113;48.762;12.302;2022-07-29T10:07:05;1.95;;;1.40;;
72209;SDS011;60113;48.762;12.302;2022-07-29T10:09:31;4.28;;;1.40;;
72209;SDS011;60113;48.762;12.302;2022-07-29T10:12:11;2.90;;;1.50;;
72209;SDS011;60113;48.762;12.302;2022-07-29T10:14:40;4.93;;;1.70;;
72209;SDS011;60113;48.762;12.302;2022-07-29T10:17:08;3.33;;;1.60;;
72209;SDS011;60113;48.762;12.302;2022-07-29T10:19:35;4.15;;;1.45;;
72209;SDS011;60113;48.762;12.302;2022-07-29T10:22:04;2.47;;;1.20;;
72209;SDS011;60113;48.762;12.302;2022-07-29T10:24:31;4.80;;;1.75;;
72209;SDS011;60113;48.762;12.302;2022-07-29T10:26:59;5.45;;;1.52;;
72209;SDS011;60113;48.762;12.302;2022-07-29T10:29:26;7.45;;;4.95;;
72209;SDS011;60113;48.762;12.302;2022-07-29T10:42:22;3.17;;;1.15;;
72209;SDS011;60113;48.762;12.302;2022-07-29T10:44:50;1.52;;;0.95;;
72209;SDS011;60113;48.762;12.302;2022-07-29T10:47:21;3.50;;;1.10;;
72209;SDS011;60113;48.762;12.302;2022-07-29T10:49:57;3.65;;;1.00;;
72209;SDS011;60113;48.762;12.302;2022-07-29T10:52:24;3.75;;;1.08;;
72209;SDS011;60113;48.762;12.302;2022-07-29T10:55:29;14.07;;;1.42;;
72209;SDS011;60113;48.762;12.302;2022-07-29T10:58:10;2.05;;;1.20;;
72209;SDS011;60113;48.762;12.302;2022-07-29T11:00:39;2.50;;;1.10;;
72209;SDS011;60113;48.762;12.302;2022-07-29T11:03:06;4.72;;;1.10;;
72209;SDS011;60113;48.762;12.302;2022-07-29T11:05:51;5.68;;;0.77;;
72209;SDS011;60113;48.762;12.302;2022-07-29T11:08:20;0.70;;;0.70;;
72209;SDS011;60113;48.762;12.302;2022-07-29T11:10:50;26.88;;;4.35;;
72209;SDS011;60113;48.762;12.302;2022-07-29T11:16:06;2.25;;;1.08;;
72209;SDS011;60113;48.762;12.302;2022-07-29T11:18:32;2.92;;;1.20;;
72209;SDS011;60113;48.762;12.302;2022-07-29T11:20:57;2.67;;;2.00;;
72209;SDS011;60113;48.762;12.302;2022-07-29T11:23:26;4.60;;;0.90;;
72209;SDS011;60113;48.762;12.302;2022-07-29T11:28:57;2.13;;;0.93;;
72209;SDS011;60113;48.762;12.302;2022-07-29T11:37:25;2.30;;;1.02;;
72209;SDS011;60113;48.762;12.302;2022-07-29T11:39:46;1.58;;;1.00;;
72209;SDS011;60113;48.762;12.302;2022-07-29T11:45:44;1.42;;;1.00;;
72209;SDS011;60113;48.762;12.302;2022-07-29T11:47:38;2.80;;;0.88;;
72209;SDS011;60113;48.762;12.302;2022-07-29T11:50:06;2.88;;;1.00;;
72209;SDS011;60113;48.762;12.302;2022-07-29T11:55:15;2.20;;;0.90;;
72209;SDS011;60113;48.762;12.302;2022-07-29T11:57:55;1.63;;;0.90;;
72209;SDS011;60113;48.762;12.302;2022-07-29T12:02:55;6.10;;;1.17;;
72209;SDS011;60113;48.762;12.302;2022-07-29T12:05:30;6.47;;;1.10;;
72209;SDS011;60113;48.762;12.302;2022-07-29T12:10:43;3.80;;;1.10;;
72209;SDS011;60113;48.762;12.302;2022-07-29T12:13:09;1.30;;;0.85;;
72209;SDS011;60113;48.762;12.302;2022-07-29T12:15:36;2.88;;;1.30;;
72209;SDS011;60113;48.762;12.302;2022-07-29T12:18:14;3.72;;;1.00;;
72209;SDS011;60113;48.762;12.302;2022-07-29T12:20:41;3.33;;;1.00;;
72209;SDS011;60113;48.762;12.302;2022-07-29T12:23:08;1.42;;;0.90;;
72209;SDS011;60113;48.762;12.302;2022-07-29T12:25:37;1.88;;;1.10;;
72209;SDS011;60113;48.762;12.302;2022-07-29T12:28:05;5.55;;;1.00;;
72209;SDS011;60113;48.762;12.302;2022-07-29T12:30:36;1.98;;;1.10;;
72209;SDS011;60113;48.762;12.302;2022-07-29T12:35:41;13.25;;;1.60;;
72209;SDS011;60113;48.762;12.302;2022-07-29T12:38:12;8.32;;;1.10;;
72209;SDS011;60113;48.762;12.302;2022-07-29T12:40:39;1.80;;;1.13;;
72209;SDS011;60113;48.762;12.302;2022-07-29T12:43:18;2.75;;;0.95;;
72209;SDS011;60113;48.762;12.302;2022-07-29T12:45:46;3.72;;;1.20;;
72209;SDS011;60113;48.762;12.302;2022-07-29T12:48:13;3.33;;;0.93;;
72209;SDS011;60113;48.762;12.302;2022-07-29T12:50:52;1.45;;;1.15;;
72209;SDS011;60113;48.762;12.302;2022-07-29T12:53:20;2.22;;;0.98;;
72209;SDS011;60113;48.762;12.302;2022-07-29T12:55:47;1.95;;;1.13;;
72209;SDS011;60113;48.762;12.302;2022-07-29T12:58:26;4.83;;;1.30;;
72209;SDS011;60113;48.762;12.302;2022-07-29T13:01:03;1.63;;;0.90;;
72209;SDS011;60113;48.762;12.302;2022-07-29T13:06:08;4.20;;;1.13;;
72209;SDS011;60113;48.762;12.302;2022-07-29T13:09:20;2.35;;;1.05;;
72209;SDS011;60113;48.762;12.302;2022-07-29T13:11:49;1.73;;;1.10;;
72209;SDS011;60113;48.762;12.302;2022-07-29T13:14:32;2.00;;;1.17;;
72209;SDS011;60113;48.762;12.302;2022-07-29T13:17:03;1.83;;;1.08;;
72209;SDS011;60113;48.762;12.302;2022-07-29T13:19:44;5.22;;;1.30;;
72209;SDS011;60113;48.762;12.302;2022-07-29T13:22:13;1.83;;;1.15;;
72209;SDS011;60113;48.762;12.302;2022-07-29T13:24:56;4.13;;;1.35;;
72209;SDS011;60113;48.762;12.302;2022-07-29T13:27:25;3.45;;;1.55;;
72209;SDS011;60113;48.762;12.302;2022-07-29T13:29:52;2.17;;;1.25;;
72209;SDS011;60113;48.762;12.302;2022-07-29T13:32:21;2.80;;;1.20;;
72209;SDS011;60113;48.762;12.302;2022-07-29T13:34:47;2.13;;;1.20;;
72209;SDS011;60113;48.762;12.302;2022-07-29T13:37:14;2.58;;;1.30;;
72209;SDS011;60113;48.762;12.302;2022-07-29T13:39:40;4.63;;;1.45;;
72209;SDS011;60113;48.762;12.302;2022-07-29T13:42:06;6.82;;;1.35;;
72209;SDS011;60113;48.762;12.302;2022-07-29T13:44:32;11.35;;;1.33;;
72209;SDS011;60113;48.762;12.302;2022-07-29T13:46:58;2.75;;;1.33;;
72209;SDS011;60113;48.762;12.302;2022-07-29T13:49:26;2.35;;;1.30;;
72209;SDS011;60113;48.762;12.302;2022-07-29T13:51:52;1.52;;;1.20;;
72209;SDS011;60113;48.762;12.302;2022-07-29T13:54:18;5.57;;;1.55;;
72209;SDS011;60113;48.762;12.302;2022-07-29T13:56:44;4.20;;;1.17;;
72209;SDS011;60113;48.762;12.302;2022-07-29T13:59:10;4.40;;;1.30;;
72209;SDS011;60113;48.762;12.302;2022-07-29T14:01:35;6.20;;;2.05;;
72209;SDS011;60113;48.762;12.302;2022-07-29T14:04:01;3.40;;;1.30;;
72209;SDS011;60113;48.762;12.302;2022-07-29T14:06:27;3.00;;;1.50;;
72209;SDS011;60113;48.762;12.302;2022-07-29T14:08:52;2.60;;;1.27;;
72209;SDS011;60113;48.762;12.302;2022-07-29T14:11:18;3.05;;;1.42;;
72209;SDS011;60113;48.762;12.302;2022-07-29T14:13:44;5.63;;;1.60;;
72209;SDS011;60113;48.762;12.302;2022-07-29T14:16:11;2.75;;;1.40;;
72209;SDS011;60113;48.762;12.302;2022-07-29T14:18:37;2.20;;;1.30;;
72209;SDS011;60113;48.762;12.302;2022-07-29T14:21:02;3.72;;;1.65;;
72209;SDS011;60113;48.762;12.302;2022-07-29T14:23:28;2.63;;;1.38;;
72209;SDS011;60113;48.762;12.302;2022-07-29T14:25:54;3.65;;;1.40;;
72209;SDS011;60113;48.762;12.302;2022-07-29T14:28:19;7.03;;;1.42;;
72209;SDS011;60113;48.762;12.302;2022-07-29T14:30:45;7.25;;;1.40;;
72209;SDS011;60113;48.762;12.302;2022-07-29T14:33:10;4.80;;;1.40;;
72209;SDS011;60113;48.762;12.302;2022-07-29T14:35:36;4.72;;;1.25;;
72209;SDS011;60113;48.762;12.302;2022-07-29T14:38:02;2.03;;;1.30;;
72209;SDS011;60113;48.762;12.302;2022-07-29T14:40:27;2.60;;;1.15;;
72209;SDS011;60113;48.762;12.302;2022-07-29T14:42:53;2.78;;;1.30;;
72209;SDS011;60113;48.762;12.302;2022-07-29T14:45:18;5.57;;;1.63;;
72209;SDS011;60113;48.762;12.302;2022-07-29T14:47:44;3.63;;;1.30;;
72209;SDS011;60113;48.762;12.302;2022-07-29T14:50:09;2.55;;;1.33;;
72209;SDS011;60113;48.762;12.302;2022-07-29T14:52:35;5.05;;;1.40;;
72209;SDS011;60113;48.762;12.302;2022-07-29T14:55:01;1.88;;;1.30;;
72209;SDS011;60113;48.762;12.302;2022-07-29T14:57:29;2.40;;;1.08;;
72209;SDS011;60113;48.762;12.302;2022-07-29T14:59:55;2.83;;;1.48;;
72209;SDS011;60113;48.762;12.302;2022-07-29T15:02:21;3.42;;;1.30;;
72209;SDS011;60113;48.762;12.302;2022-07-29T15:04:46;1.63;;;1.08;;
72209;SDS011;60113;48.762;12.302;2022-07-29T15:07:13;4.43;;;1.15;;
72209;SDS011;60113;48.762;12.302;2022-07-29T15:09:39;1.25;;;1.00;;
72209;SDS011;60113;48.762;12.302;2022-07-29T15:12:05;1.75;;;1.20;;
72209;SDS011;60113;48.762;12.302;2022-07-29T15:14:31;3.15;;;1.20;;
72209;SDS011;60113;48.762;12.302;2022-07-29T15:16:57;2.63;;;1.30;;
72209;SDS011;60113;48.762;12.302;2022-07-29T15:19:22;1.67;;;1.10;;
72209;SDS011;60113;48.762;12.302;2022-07-29T15:21:48;4.40;;;1.15;;
72209;SDS011;60113;48.762;12.302;2022-07-29T15:24:14;2.20;;;1.23;;
72209;SDS011;60113;48.762;12.302;2022-07-29T15:26:41;7.07;;;1.17;;
72209;SDS011;60113;48.762;12.302;2022-07-29T15:29:07;2.83;;;1.50;;
72209;SDS011;60113;48.762;12.302;2022-07-29T15:31:33;1.85;;;1.30;;
72209;SDS011;60113;48.762;12.302;2022-07-29T15:33:58;1.83;;;1.20;;
72209;SDS011;60113;48.762;12.302;2022-07-29T15:36:24;2.95;;;1.38;;
72209;SDS011;60113;48.762;12.302;2022-07-29T15:38:51;2.20;;;1.50;;
72209;SDS011;60113;48.762;12.302;2022-07-29T15:41:18;2.67;;;1.23;;